Terminal Aerodrome Forecast
Issued by NWS

Home | Current Version | Previous Version | Text Only | Print | Product List | Glossary On
Versions: 1 2 3 4 5 6 7 8 9 10 11 12 13 14 15 16 17 18 19 20 21
000
FTUS43 KICT 211720
TAFSLN
TAF
KSLN 211720Z 2118/2218 VRB05KT P6SM FEW025
     FM212200 17007KT P6SM SKC
     FM220900 18007KT P6SM BKN150
      TEMPO 2210/2214 FEW015
     FM221500 18012G18KT P6SM SCT250=

USA.gov is the U.S. government's official web portal to all federal, state and local government web resources and services.